Time;durP1;ratioP1;P1;durP2;ratioP2;P2;SDS_P1;SDS_P2;PMS_P1;PMS_P2;Temp;Humidity;BMP_temperature;BMP_pressure;BME280_temperature;BME280_humidity;BME280_pressure;Samples;Min_cycle;Max_cycle;Signal;HPM_P1;HPM_P2
2023/01/30 00:01:30;;;;;;;;;;;;;;;10.17;44.49;100740.84;4938863;28;118174;-66
2023/01/30 00:03:56;;;;;;;;;;;;;;;10.18;44.99;100733.59;4922474;28;100352;-66
2023/01/30 00:06:21;;;;;;;;;;;;;;;10.18;44.97;100728.19;4956799;28;128284;-66
2023/01/30 00:08:47;;;;;;;;;;;;;;;10.18;44.91;100720.97;4957027;28;116627;-66
2023/01/30 00:11:14;;;;;;;;;;;;;;;10.19;44.67;100716.38;4957181;28;115443;-66
2023/01/30 00:13:40;;;;;;;;;;;;;;;10.18;44.79;100702.09;4955333;28;98462;-66
2023/01/30 00:16:08;;;;;;;;;;;;;;;10.18;44.45;100696.72;4955333;28;123099;-66
2023/01/30 00:18:34;;;;;;;;;;;;;;;10.19;44.52;100694.81;4957530;28;98815;-66
2023/01/30 00:21:02;;;;;;;;;;;;;;;10.19;44.88;100690.25;4940897;28;99789;-66
2023/01/30 00:23:30;;;;;;;;;;;;;;;10.18;44.28;100683.25;4961800;28;127571;-66
2023/01/30 00:25:56;;;;;;;;;;;;;;;10.18;44.29;100671.63;4961553;28;120994;-66
2023/01/30 00:28:22;;;;;;;;;;;;;;;10.19;44.29;100675.97;4954640;28;128263;-66
2023/01/30 00:30:49;;;;;;;;;;;;;;;10.19;44.27;100676.78;4945676;28;98030;-66
2023/01/30 00:33:15;;;;;;;;;;;;;;;10.20;44.83;100677.59;4961468;28;98300;-66
2023/01/30 00:35:45;;;;;;;;;;;;;;;10.19;44.66;100663.31;4943546;28;103295;-66
2023/01/30 00:38:11;;;;;;;;;;;;;;;10.19;44.47;100644.44;4959251;28;99548;-66
2023/01/30 00:40:37;;;;;;;;;;;;;;;10.18;44.87;100645.53;4958722;28;117648;-66
2023/01/30 00:48:31;;;;;;;;;;;;;;;10.18;44.26;100644.69;4956647;28;98325;-66
2023/01/30 00:50:57;;;;;;;;;;;;;;;10.18;44.38;100650.06;4959229;28;116170;-66
2023/01/30 00:53:23;;;;;;;;;;;;;;;10.18;44.78;100663.53;4958504;28;127943;-66
2023/01/30 00:55:52;;;;;;;;;;;;;;;10.18;44.18;100666.25;4957446;28;99066;-66
2023/01/30 00:58:18;;;;;;;;;;;;;;;10.18;44.61;100660.84;4959729;28;112086;-66
2023/01/30 01:00:44;;;;;;;;;;;;;;;10.18;44.79;100642.00;4956410;28;112960;-66
2023/01/30 01:03:10;;;;;;;;;;;;;;;10.18;44.64;100636.59;4962290;28;128412;-66
2023/01/30 01:05:36;;;;;;;;;;;;;;;10.17;44.71;100622.31;4960676;28;106360;-66
2023/01/30 01:08:02;;;;;;;;;;;;;;;10.17;44.66;100618.81;4959515;28;103584;-66
2023/01/30 01:10:28;;;;;;;;;;;;;;;10.16;44.85;100599.16;4957844;28;97901;-66
2023/01/30 01:12:54;;;;;;;;;;;;;;;10.17;44.36;100610.75;4947098;28;100918;-66
2023/01/30 01:15:21;;;;;;;;;;;;;;;10.17;44.48;100599.97;4943942;28;98600;-66
2023/01/30 01:17:47;;;;;;;;;;;;;;;10.17;44.74;100589.19;4962738;28;98021;-67
2023/01/30 01:20:13;;;;;;;;;;;;;;;10.16;44.47;100579.50;4958142;28;98073;-67
2023/01/30 01:22:39;;;;;;;;;;;;;;;10.17;44.41;100567.66;4957571;28;98224;-67
2023/01/30 01:25:05;;;;;;;;;;;;;;;10.17;44.57;100570.34;4923613;28;131368;-67
2023/01/30 01:27:31;;;;;;;;;;;;;;;10.17;44.68;100559.56;4958075;28;125527;-66
2023/01/30 01:29:57;;;;;;;;;;;;;;;10.17;44.65;100562.25;4927509;28;117718;-66
2023/01/30 01:32:23;;;;;;;;;;;;;;;10.17;44.89;100556.88;4941199;28;127246;-66
2023/01/30 01:34:49;;;;;;;;;;;;;;;10.16;44.41;100556.06;4954998;28;127943;-66
2023/01/30 01:37:15;;;;;;;;;;;;;;;10.16;44.32;100539.09;4942845;28;127563;-66
2023/01/30 01:42:28;;;;;;;;;;;;;;;10.15;44.83;100510.53;4953303;28;98806;-66
2023/01/30 01:45:13;;;;;;;;;;;;;;;10.17;44.69;100503.00;4958762;28;107427;-66
2023/01/30 01:47:52;;;;;;;;;;;;;;;10.15;44.54;100499.78;4963035;28;97880;-66
2023/01/30 01:50:22;;;;;;;;;;;;;;;10.15;44.83;100475.53;4960192;27;97971;-66
2023/01/30 01:52:48;;;;;;;;;;;;;;;10.15;44.73;100475.53;4954973;28;124208;-66
2023/01/30 01:55:14;;;;;;;;;;;;;;;10.15;44.57;100467.44;4958418;28;128720;-66
2023/01/30 01:57:49;;;;;;;;;;;;;;;10.14;44.24;100458.56;4956051;28;127786;-66
2023/01/30 02:00:16;;;;;;;;;;;;;;;10.14;44.72;100461.25;4959381;28;98315;-65
2023/01/30 02:02:49;;;;;;;;;;;;;;;10.15;44.64;100446.72;4944071;28;98631;-66
2023/01/30 02:05:15;;;;;;;;;;;;;;;10.15;44.79;100449.41;4958594;28;98580;-67
2023/01/30 02:08:03;;;;;;;;;;;;;;;10.14;44.19;100434.31;4941258;28;127899;-66
2023/01/30 02:10:40;;;;;;;;;;;;;;;10.14;44.65;100434.31;4949583;28;97998;-66
2023/01/30 02:13:06;;;;;;;;;;;;;;;10.14;44.64;100433.47;4958407;28;124758;-66
2023/01/30 02:15:32;;;;;;;;;;;;;;;10.14;44.64;100433.47;4959856;28;127719;-66
2023/01/30 02:17:58;;;;;;;;;;;;;;;10.14;44.63;100422.72;4957594;28;122734;-66
2023/01/30 02:20:42;;;;;;;;;;;;;;;10.14;44.79;100406.53;4939572;28;99209;-66
2023/01/30 02:23:34;;;;;;;;;;;;;;;10.13;44.21;100405.75;4956777;28;98564;-66
2023/01/30 02:26:08;;;;;;;;;;;;;;;10.14;44.82;100433.47;4957758;28;98223;-68
2023/01/30 02:29:08;;;;;;;;;;;;;;;10.14;44.74;100430.78;4942285;28;126072;-66
2023/01/30 02:32:06;;;;;;;;;;;;;;;10.14;44.43;100436.19;4959225;28;108714;-66
2023/01/30 02:34:42;;;;;;;;;;;;;;;10.13;44.27;100424.59;4957162;28;98650;-66
2023/01/30 02:37:30;;;;;;;;;;;;;;;10.13;44.43;100429.97;4944352;28;112685;-66
2023/01/30 02:40:15;;;;;;;;;;;;;;;10.13;44.75;100424.59;4942737;28;125890;-66
2023/01/30 02:42:50;;;;;;;;;;;;;;;10.14;44.31;100409.25;4959233;28;97948;-66
2023/01/30 02:45:57;;;;;;;;;;;;;;;10.14;44.83;100401.16;4957921;28;98528;-66
2023/01/30 02:48:56;;;;;;;;;;;;;;;10.14;44.25;100401.16;4955946;28;98111;-66
2023/01/30 02:51:29;;;;;;;;;;;;;;;10.12;44.66;100382.59;4942920;28;102331;-66
2023/01/30 02:53:55;;;;;;;;;;;;;;;10.13;44.41;100389.56;4939365;28;112567;-66
2023/01/30 02:56:21;;;;;;;;;;;;;;;10.12;44.25;100366.41;4959030;28;127060;-66
2023/01/30 02:59:01;;;;;;;;;;;;;;;10.14;44.24;100358.06;4970686;28;128013;-66
2023/01/30 03:01:50;;;;;;;;;;;;;;;10.13;44.80;100349.19;4941079;28;99122;-66
2023/01/30 03:04:44;;;;;;;;;;;;;;;10.13;44.42;100356.44;4958906;28;98136;-66
2023/01/30 03:07:26;;;;;;;;;;;;;;;10.13;44.32;100335.72;4958856;28;97974;-67
2023/01/30 03:10:16;;;;;;;;;;;;;;;10.14;44.48;100331.13;4937486;28;126469;-66
2023/01/30 03:13:12;;;;;;;;;;;;;;;10.13;44.25;100321.44;4953978;28;97940;-66
2023/01/30 03:15:41;;;;;;;;;;;;;;;10.14;44.43;100310.41;4957885;28;98170;-66
2023/01/30 03:18:07;;;;;;;;;;;;;;;10.14;44.17;100296.13;4942139;28;122568;-66
2023/01/30 03:20:39;;;;;;;;;;;;;;;10.14;44.32;100286.19;4926361;28;131563;-66
2023/01/30 03:23:06;;;;;;;;;;;;;;;10.15;44.34;100278.91;4925183;28;127506;-66
2023/01/30 03:25:32;;;;;;;;;;;;;;;10.14;44.47;100275.41;4942241;28;98067;-66
2023/01/30 03:27:58;;;;;;;;;;;;;;;10.15;44.14;100257.34;4940357;28;102613;-66
2023/01/30 03:30:27;;;;;;;;;;;;;;;10.14;44.84;100259.25;4937165;28;127204;-66
2023/01/30 03:32:53;;;;;;;;;;;;;;;10.15;44.84;100257.34;4923791;28;128809;-66
2023/01/30 03:35:19;;;;;;;;;;;;;;;10.14;44.26;100245.78;4959068;27;117797;-66
2023/01/30 03:37:44;;;;;;;;;;;;;;;10.16;44.17;100240.09;4956755;28;124471;-66
2023/01/30 03:40:11;;;;;;;;;;;;;;;10.14;44.60;100235.00;4941276;28;128206;-66
2023/01/30 03:42:37;;;;;;;;;;;;;;;10.15;44.58;100244.69;4957675;28;99228;-66
2023/01/30 03:45:03;;;;;;;;;;;;;;;10.16;44.53;100243.59;4940758;28;118603;-66
2023/01/30 03:47:29;;;;;;;;;;;;;;;10.17;44.16;100244.41;4975534;28;112026;-66
2023/01/30 03:49:55;;;;;;;;;;;;;;;10.17;44.53;100234.44;4938074;28;127996;-66
2023/01/30 03:52:21;;;;;;;;;;;;;;;10.17;44.32;100226.34;4956088;28;127219;-66
2023/01/30 03:54:47;;;;;;;;;;;;;;;10.19;44.40;100220.72;4939813;28;117180;-67
2023/01/30 03:57:13;;;;;;;;;;;;;;;10.19;44.27;100210.75;4957439;28;120161;-66
2023/01/30 03:59:39;;;;;;;;;;;;;;;10.19;44.63;100205.34;4939698;28;127888;-65
2023/01/30 04:02:05;;;;;;;;;;;;;;;10.19;44.46;100194.59;4938566;28;99696;-66
2023/01/30 04:04:31;;;;;;;;;;;;;;;10.21;44.69;100188.91;4953835;28;120658;-66
2023/01/30 04:06:56;;;;;;;;;;;;;;;10.22;44.16;100202.13;4942018;28;99069;-66
2023/01/30 04:09:22;;;;;;;;;;;;;;;10.23;44.48;100194.84;4938024;28;127670;-66
2023/01/30 04:11:48;;;;;;;;;;;;;;;10.24;44.15;100205.34;4942227;28;127936;-67
2023/01/30 04:14:14;;;;;;;;;;;;;;;10.24;44.43;100193.78;4939315;28;117398;-66
2023/01/30 04:16:40;;;;;;;;;;;;;;;10.25;44.57;100188.13;4955098;28;127518;-66
2023/01/30 04:19:06;;;;;;;;;;;;;;;10.25;44.67;100190.00;4957892;28;114330;-66
2023/01/30 04:21:32;;;;;;;;;;;;;;;10.26;44.87;100184.38;4937065;28;126917;-66
2023/01/30 04:23:58;;;;;;;;;;;;;;;10.26;44.55;100189.75;4956721;28;98210;-66
2023/01/30 04:26:24;;;;;;;;;;;;;;;10.27;44.62;100196.75;4956617;28;126018;-67
2023/01/30 04:28:50;;;;;;;;;;;;;;;10.27;44.46;100169.81;4957653;28;98239;-66
2023/01/30 04:31:16;;;;;;;;;;;;;;;10.29;44.53;100159.56;4936235;28;127843;-66
2023/01/30 04:33:42;;;;;;;;;;;;;;;10.30;44.70;100157.69;4941310;28;113569;-66
2023/01/30 04:36:08;;;;;;;;;;;;;;;10.31;44.39;100140.44;4936450;28;110414;-66
2023/01/30 04:38:34;;;;;;;;;;;;;;;10.31;44.15;100141.25;4954451;28;98592;-66
2023/01/30 04:41:00;;;;;;;;;;;;;;;10.32;44.55;100134.78;4954575;28;125421;-66
2023/01/30 04:43:27;;;;;;;;;;;;;;;10.34;44.40;100141.81;4941299;28;113474;-66
2023/01/30 04:45:53;;;;;;;;;;;;;;;10.35;44.76;100136.13;4954395;28;123041;-66
2023/01/30 04:48:20;;;;;;;;;;;;;;;10.36;44.28;100128.84;4954112;28;98443;-66
2023/01/30 04:50:47;;;;;;;;;;;;;;;10.36;44.74;100124.25;4958214;28;98657;-66
2023/01/30 04:53:13;;;;;;;;;;;;;;;10.37;44.79;100123.19;4939654;28;100000;-66
2023/01/30 04:55:39;;;;;;;;;;;;;;;10.38;44.40;100110.53;4956016;28;114291;-66
2023/01/30 04:58:05;;;;;;;;;;;;;;;10.38;44.48;100107.84;4937754;28;126905;-66
2023/01/30 05:00:31;;;;;;;;;;;;;;;10.38;44.32;100099.75;4955125;28;125946;-66
2023/01/30 05:02:57;;;;;;;;;;;;;;;10.38;44.46;100097.06;4952418;28;117998;-66
2023/01/30 05:05:23;;;;;;;;;;;;;;;10.37;44.87;100101.63;4942944;28;98433;-66
2023/01/30 05:07:49;;;;;;;;;;;;;;;10.37;44.51;100077.38;4955341;28;124579;-65
2023/01/30 05:10:16;;;;;;;;;;;;;;;10.37;44.12;100068.47;4942684;28;98519;-65
2023/01/30 05:12:41;;;;;;;;;;;;;;;10.36;44.29;100078.47;4957256;28;117529;-66
2023/01/30 05:15:08;;;;;;;;;;;;;;;10.35;44.46;100078.75;4960667;28;127373;-65
2023/01/30 05:17:34;;;;;;;;;;;;;;;10.36;44.24;100083.03;4974795;28;98971;-66
2023/01/30 05:20:00;;;;;;;;;;;;;;;10.34;44.52;100058.28;4955351;28;128341;-67
2023/01/30 05:22:26;;;;;;;;;;;;;;;10.34;44.22;100059.09;4961754;28;109812;-66
2023/01/30 05:24:52;;;;;;;;;;;;;;;10.33;44.63;100052.06;4959577;28;127229;-66
2023/01/30 05:27:18;;;;;;;;;;;;;;;10.33;44.54;100054.75;4941591;28;129599;-65
2023/01/30 05:29:43;;;;;;;;;;;;;;;10.32;44.70;100042.38;4941822;28;127254;-66
2023/01/30 05:32:16;;;;;;;;;;;;;;;10.31;44.06;100032.69;4942105;28;118151;-65
2023/01/30 05:34:42;;;;;;;;;;;;;;;10.30;44.48;100058.81;4955622;28;98075;-65
2023/01/30 05:37:08;;;;;;;;;;;;;;;10.29;44.46;100032.94;4942196;28;127726;-65
2023/01/30 05:39:34;;;;;;;;;;;;;;;10.30;44.84;100037.28;4942774;28;105868;-67
2023/01/30 05:42:00;;;;;;;;;;;;;;;10.30;44.86;100029.19;4957067;28;118405;-66
2023/01/30 05:44:26;;;;;;;;;;;;;;;10.30;44.84;100015.72;4957217;28;128905;-65
2023/01/30 05:46:58;;;;;;;;;;;;;;;10.30;44.61;100031.09;4817366;27;10000284;-65
2023/01/30 05:49:24;;;;;;;;;;;;;;;10.29;44.52;100016.78;4423887;28;10000457;-65
2023/01/30 05:51:50;;;;;;;;;;;;;;;10.31;44.68;100005.75;4955295;28;128006;-66
2023/01/30 05:54:16;;;;;;;;;;;;;;;10.30;44.83;99991.47;4940042;28;98652;-66
2023/01/30 05:56:42;;;;;;;;;;;;;;;10.31;44.82;100003.84;4939886;28;128585;-67
2023/01/30 05:59:09;;;;;;;;;;;;;;;10.32;44.46;100002.75;4938274;28;128179;-66
2023/01/30 06:01:35;;;;;;;;;;;;;;;10.32;44.45;99991.19;4922617;28;124857;-65
2023/01/30 06:04:01;;;;;;;;;;;;;;;10.31;44.87;99995.78;4955895;28;104363;-66
2023/01/30 06:06:27;;;;;;;;;;;;;;;10.33;44.47;99995.47;4936952;28;98404;-66
2023/01/30 06:08:56;;;;;;;;;;;;;;;10.32;44.74;99994.69;4954711;28;126873;-65
2023/01/30 06:11:22;;;;;;;;;;;;;;;10.31;44.93;99998.47;4937557;28;128396;-66
2023/01/30 06:13:48;;;;;;;;;;;;;;;10.34;44.83;100005.19;4953687;28;98094;-66
2023/01/30 06:16:15;;;;;;;;;;;;;;;10.34;44.61;100013.28;4930821;28;106554;-65
2023/01/30 06:18:41;;;;;;;;;;;;;;;10.35;44.92;100022.16;4938435;28;128133;-65
2023/01/30 06:21:07;;;;;;;;;;;;;;;10.36;44.71;100013.81;4956511;28;122801;-66
2023/01/30 06:23:33;;;;;;;;;;;;;;;10.36;44.65;100021.06;4941615;28;98538;-66
2023/01/30 06:25:59;;;;;;;;;;;;;;;10.38;44.81;100027.81;4957008;28;125964;-65
2023/01/30 06:28:25;;;;;;;;;;;;;;;10.39;44.64;100010.56;4941534;28;98545;-66
2023/01/30 06:30:52;;;;;;;;;;;;;;;10.40;44.72;100017.56;4954825;28;98271;-66
2023/01/30 06:33:17;;;;;;;;;;;;;;;10.40;44.51;100009.47;4953392;28;98142;-66
2023/01/30 06:35:43;;;;;;;;;;;;;;;10.40;44.60;100022.94;4951542;28;128159;-65
2023/01/30 06:38:10;;;;;;;;;;;;;;;10.43;44.79;100016.19;4955606;28;99116;-65
2023/01/30 06:40:44;;;;;;;;;;;;;;;10.42;44.82;100010.00;4924694;28;98949;-64
2023/01/30 06:43:10;;;;;;;;;;;;;;;10.42;44.39;99999.22;4957552;28;98861;-64
2023/01/30 06:45:36;;;;;;;;;;;;;;;10.43;44.69;100011.63;4954158;28;128111;-65
2023/01/30 06:48:02;;;;;;;;;;;;;;;10.43;44.57;100014.31;4938942;28;127864;-65
2023/01/30 06:50:28;;;;;;;;;;;;;;;10.43;44.20;100010.81;4957520;28;98034;-63
2023/01/30 06:52:54;;;;;;;;;;;;;;;10.44;44.57;100002.44;4957273;28;98343;-63
2023/01/30 06:55:22;;;;;;;;;;;;;;;10.45;44.19;100003.25;4957443;28;98311;-63
2023/01/30 06:57:48;;;;;;;;;;;;;;;10.44;44.44;100007.03;4943105;28;98464;-63
2023/01/30 07:00:16;;;;;;;;;;;;;;;10.44;44.84;99998.94;4950482;28;127819;-64
2023/01/30 07:02:42;;;;;;;;;;;;;;;10.43;44.60;99998.13;4940690;28;98137;-64
2023/01/30 07:05:08;;;;;;;;;;;;;;;10.43;44.75;99990.06;4956027;28;127863;-63
2023/01/30 07:07:34;;;;;;;;;;;;;;;10.44;44.81;99994.34;4939332;28;121977;-64
2023/01/30 07:10:00;;;;;;;;;;;;;;;10.45;44.85;99990.59;4952835;28;122632;-63
2023/01/30 07:12:26;;;;;;;;;;;;;;;10.47;44.62;99999.19;4957483;28;116631;-64
2023/01/30 07:14:52;;;;;;;;;;;;;;;10.48;44.74;99991.91;4957306;28;126946;-64
2023/01/30 07:17:19;;;;;;;;;;;;;;;10.50;44.74;99997.84;4954957;28;128698;-63
2023/01/30 07:19:45;;;;;;;;;;;;;;;10.50;44.50;99979.78;4940283;28;118946;-63
2023/01/30 07:22:11;;;;;;;;;;;;;;;10.51;44.61;99980.59;4938024;28;98018;-63
2023/01/30 07:24:38;;;;;;;;;;;;;;;10.52;44.90;99983.00;4957713;28;98544;-64
2023/01/30 07:27:06;;;;;;;;;;;;;;;10.54;44.45;99982.72;4956775;28;98852;-65
2023/01/30 07:29:33;;;;;;;;;;;;;;;10.55;44.67;99982.44;4941367;28;99920;-64
2023/01/30 07:31:59;;;;;;;;;;;;;;;10.54;44.52;99978.16;4956810;28;100753;-64
2023/01/30 07:34:24;;;;;;;;;;;;;;;10.55;44.37;99976.25;4955945;28;128241;-64
2023/01/30 07:36:50;;;;;;;;;;;;;;;10.54;44.68;99972.75;4954013;28;127375;-64
2023/01/30 07:39:16;;;;;;;;;;;;;;;10.56;44.73;99970.56;4955280;28;127545;-64
2023/01/30 07:41:42;;;;;;;;;;;;;;;10.57;44.66;99976.75;4959198;28;117545;-65
2023/01/30 07:44:08;;;;;;;;;;;;;;;10.59;44.46;99973.81;4958357;28;128076;-64
2023/01/30 07:46:34;;;;;;;;;;;;;;;10.58;44.70;99970.31;4955791;28;128857;-65
2023/01/30 07:49:03;;;;;;;;;;;;;;;10.58;44.64;99973.00;4939363;28;127936;-64
2023/01/30 07:51:29;;;;;;;;;;;;;;;10.57;44.55;99974.91;4954256;28;98244;-64
2023/01/30 07:53:55;;;;;;;;;;;;;;;10.58;44.23;99975.69;4941454;28;99549;-64
2023/01/30 07:56:21;;;;;;;;;;;;;;;10.58;44.63;99959.53;4938211;28;128607;-64
2023/01/30 07:58:47;;;;;;;;;;;;;;;10.59;44.33;99968.41;4923876;28;126971;-64
2023/01/30 08:01:13;;;;;;;;;;;;;;;10.60;44.58;99968.13;4941080;28;98768;-65
2023/01/30 08:03:39;;;;;;;;;;;;;;;10.65;44.15;99967.28;4955618;28;123189;-65
2023/01/30 08:06:06;;;;;;;;;;;;;;;10.66;44.38;99963.53;4921814;28;99386;-64
2023/01/30 08:08:31;;;;;;;;;;;;;;;10.67;44.87;99963.22;4954983;28;123735;-64
2023/01/30 08:10:57;;;;;;;;;;;;;;;10.71;44.66;99972.38;4940195;28;115858;-64
2023/01/30 08:13:23;;;;;;;;;;;;;;;10.73;44.24;99966.72;4940572;28;128808;-65
2023/01/30 08:15:49;;;;;;;;;;;;;;;10.74;44.41;99962.94;4954699;28;127532;-64
2023/01/30 08:18:15;;;;;;;;;;;;;;;10.74;44.41;99973.72;4941521;28;97942;-65
2023/01/30 08:20:44;;;;;;;;;;;;;;;10.74;44.73;99968.31;4926371;28;117360;-65
2023/01/30 08:23:10;;;;;;;;;;;;;;;10.75;44.59;99965.34;4957976;28;98531;-65
2023/01/30 08:25:36;;;;;;;;;;;;;;;10.76;44.38;99966.13;4956862;28;128076;-65
2023/01/30 08:28:02;;;;;;;;;;;;;;;10.80;44.42;99948.31;4939293;28;126915;-66
2023/01/30 08:30:29;;;;;;;;;;;;;;;10.85;44.39;99951.00;4939809;28;112589;-65
2023/01/30 08:32:55;;;;;;;;;;;;;;;10.90;44.29;99953.63;4956858;28;97972;-64
2023/01/30 08:35:21;;;;;;;;;;;;;;;10.90;44.58;99944.75;4956529;28;125448;-66
2023/01/30 08:37:47;;;;;;;;;;;;;;;10.91;44.26;99943.66;4955192;28;126024;-65
2023/01/30 08:40:13;;;;;;;;;;;;;;;10.93;44.51;99947.69;4940801;28;98723;-65
2023/01/30 08:42:41;;;;;;;;;;;;;;;10.99;44.27;99943.84;4941240;28;98058;-65
2023/01/30 08:45:07;;;;;;;;;;;;;;;11.10;44.60;99938.38;4956060;28;125983;-65
2023/01/30 08:47:34;;;;;;;;;;;;;;;11.26;44.09;99943.34;4960216;28;119766;-65
2023/01/30 08:50:00;;;;;;;;;;;;;;;11.40;43.93;99930.00;4959962;28;99711;-65
2023/01/30 08:52:26;;;;;;;;;;;;;;;11.44;43.99;99943.72;4927775;28;111446;-65
2023/01/30 08:54:52;;;;;;;;;;;;;;;11.44;43.89;99935.63;4932310;28;119421;-65
2023/01/30 08:57:18;;;;;;;;;;;;;;;11.47;44.06;99935.84;4926482;28;127670;-65
2023/01/30 08:59:44;;;;;;;;;;;;;;;11.48;44.17;99944.78;4927439;28;117251;-65
2023/01/30 09:02:11;;;;;;;;;;;;;;;11.48;44.16;99926.69;4962218;28;98368;-66
2023/01/30 09:04:37;;;;;;;;;;;;;;;11.57;44.14;99920.66;4941185;28;126875;-65
2023/01/30 09:07:03;;;;;;;;;;;;;;;11.69;43.99;99929.16;4931350;28;110015;-66
2023/01/30 09:09:29;;;;;;;;;;;;;;;11.73;43.96;99919.38;4942424;28;98501;-66
2023/01/30 09:11:55;;;;;;;;;;;;;;;11.68;44.07;99909.44;4941540;28;128589;-66
2023/01/30 09:14:21;;;;;;;;;;;;;;;11.69;44.09;99929.94;4943519;28;98985;-66
2023/01/30 09:16:48;;;;;;;;;;;;;;;11.67;44.06;99921.34;4958267;28;127627;-66
2023/01/30 09:19:14;;;;;;;;;;;;;;;11.82;43.59;99930.34;4928319;28;97981;-66
2023/01/30 09:21:40;;;;;;;;;;;;;;;11.73;44.22;99927.47;4942229;28;127170;-66
2023/01/30 09:24:06;;;;;;;;;;;;;;;11.75;44.09;99931.50;4927408;28;103879;-66
2023/01/30 09:26:32;;;;;;;;;;;;;;;11.93;43.88;99924.56;4939996;28;99265;-66
2023/01/30 09:28:58;;;;;;;;;;;;;;;12.04;43.80;99927.94;4957323;28;116246;-66
2023/01/30 09:31:24;;;;;;;;;;;;;;;12.02;43.88;99930.94;4944445;28;98199;-66
2023/01/30 09:33:50;;;;;;;;;;;;;;;11.93;44.16;99935.38;4958319;28;127915;-66
2023/01/30 09:36:16;;;;;;;;;;;;;;;11.83;44.44;99926.53;4943839;28;98048;-66
2023/01/30 09:38:42;;;;;;;;;;;;;;;11.75;44.23;99925.28;4960689;28;115995;-66
2023/01/30 09:41:35;;;;;;;;;;;;;;;11.80;44.10;99936.03;4943290;28;128747;-65
2023/01/30 09:44:29;;;;;;;;;;;;;;;11.79;44.29;99929.84;4941080;28;114607;-66
2023/01/30 09:47:01;;;;;;;;;;;;;;;11.70;44.34;99934.25;4974428;27;99440;-66
2023/01/30 09:49:42;;;;;;;;;;;;;;;11.66;44.43;99937.81;4960738;28;97961;-65
2023/01/30 09:52:21;;;;;;;;;;;;;;;11.69;44.35;99929.16;4959651;28;98051;-65
2023/01/30 09:54:47;;;;;;;;;;;;;;;11.85;44.14;99924.41;4942166;28;107259;-66
2023/01/30 09:57:17;;;;;;;;;;;;;;;11.91;44.05;99928.66;4959598;28;100941;-65
2023/01/30 10:00:01;;;;;;;;;;;;;;;12.04;44.02;99925.25;4943167;28;105040;-66
2023/01/30 10:02:59;;;;;;;;;;;;;;;12.72;43.10;99907.78;4945925;28;97989;-66
2023/01/30 10:05:34;;;;;;;;;;;;;;;13.41;42.89;99894.47;4945911;28;103678;-65
2023/01/30 10:08:06;;;;;;;;;;;;;;;13.41;43.19;99880.94;4960711;28;98216;-66
2023/01/30 10:10:49;;;;;;;;;;;;;;;13.59;42.93;99863.75;4959382;28;98120;-66
2023/01/30 10:13:41;;;;;;;;;;;;;;;14.11;42.60;99867.03;4942395;28;101158;-66
2023/01/30 10:16:18;;;;;;;;;;;;;;;14.14;42.96;99866.38;4943331;28;98537;-66
2023/01/30 10:19:10;;;;;;;;;;;;;;;14.14;42.86;99865.59;4939964;28;99127;-66
2023/01/30 10:21:49;;;;;;;;;;;;;;;14.05;43.09;99876.34;4927617;28;109248;-66
2023/01/30 10:24:45;;;;;;;;;;;;;;;13.90;43.61;99876.69;4926362;28;99916;-66
2023/01/30 10:27:13;;;;;;;;;;;;;;;13.68;43.71;99874.72;4958666;28;118055;-66
2023/01/30 10:29:40;;;;;;;;;;;;;;;13.50;43.95;99871.78;4945240;28;98050;-66
2023/01/30 10:32:20;;;;;;;;;;;;;;;13.34;44.15;99883.22;4958989;28;110604;-66
2023/01/30 10:34:51;;;;;;;;;;;;;;;13.18;44.19;99883.47;4943464;28;98237;-66
2023/01/30 10:37:39;;;;;;;;;;;;;;;13.08;44.24;99899.06;4954553;28;119988;-67
2023/01/30 10:40:18;;;;;;;;;;;;;;;12.98;44.15;99894.66;4920426;28;98153;-66
2023/01/30 10:42:49;;;;;;;;;;;;;;;12.90;44.15;99900.75;4944287;28;98637;-66
2023/01/30 10:45:20;;;;;;;;;;;;;;;12.84;44.33;99894.59;4956864;28;98466;-65
2023/01/30 10:48:01;;;;;;;;;;;;;;;12.94;43.94;99889.03;4945274;28;98570;-65
2023/01/30 10:50:41;;;;;;;;;;;;;;;12.93;44.23;99898.25;4958959;28;97865;-66
2023/01/30 10:53:19;;;;;;;;;;;;;;;12.88;44.02;99884.00;4943428;28;97998;-66
2023/01/30 10:55:47;;;;;;;;;;;;;;;12.96;43.85;99869.78;4940648;28;128113;-67
2023/01/30 10:58:51;;;;;;;;;;;;;;;13.01;43.78;99875.13;4954641;28;99589;-66
2023/01/30 11:01:42;;;;;;;;;;;;;;;13.13;43.92;99874.66;4939940;28;98176;-67
2023/01/30 11:04:23;;;;;;;;;;;;;;;13.08;43.70;99870.13;4954969;28;98127;-66
2023/01/30 11:06:49;;;;;;;;;;;;;;;13.26;43.51;99873.88;4956571;28;98612;-67
2023/01/30 11:09:15;;;;;;;;;;;;;;;13.29;43.84;99862.47;4943625;28;128782;-67
2023/01/30 11:11:47;;;;;;;;;;;;;;;13.27;43.75;99859.25;4959362;28;99045;-67
2023/01/30 11:14:13;;;;;;;;;;;;;;;13.18;43.88;99867.22;4953814;28;97916;-66
2023/01/30 11:16:53;;;;;;;;;;;;;;;13.13;44.15;99872.75;4941242;28;132991;-66
2023/01/30 11:19:23;;;;;;;;;;;;;;;13.02;44.01;99853.19;4956798;28;98391;-67
2023/01/30 11:21:53;;;;;;;;;;;;;;;13.00;44.29;99857.28;4958002;28;120934;-66
2023/01/30 11:24:29;;;;;;;;;;;;;;;13.00;43.99;99855.38;4943004;28;98045;-66
2023/01/30 11:27:08;;;;;;;;;;;;;;;13.05;44.17;99840.97;4942318;28;97985;-66
2023/01/30 11:29:36;;;;;;;;;;;;;;;13.00;44.29;99846.44;4944062;28;98323;-66
2023/01/30 11:32:04;;;;;;;;;;;;;;;13.01;44.08;99832.66;4942230;28;98090;-66
2023/01/30 11:34:30;;;;;;;;;;;;;;;12.99;43.90;99845.66;4945976;28;112344;-67
2023/01/30 11:37:32;;;;;;;;;;;;;;;12.92;44.38;99842.53;4924364;28;126016;-66
2023/01/30 11:39:58;;;;;;;;;;;;;;;12.76;44.49;99831.19;4898557;28;98341;-66
2023/01/30 11:42:29;;;;;;;;;;;;;;;12.84;44.16;99829.69;4931978;28;117247;-66
2023/01/30 11:44:58;;;;;;;;;;;;;;;13.05;43.89;99826.63;4924285;28;97868;-67
2023/01/30 11:47:25;;;;;;;;;;;;;;;13.09;44.07;99822.25;4939139;28;98451;-66
2023/01/30 11:49:55;;;;;;;;;;;;;;;13.21;43.85;99820.63;4956888;28;98427;-66
2023/01/30 11:52:29;;;;;;;;;;;;;;;13.34;43.78;99807.44;4956992;28;97913;-66
2023/01/30 11:55:04;;;;;;;;;;;;;;;13.42;43.65;99812.13;4945056;28;99822;-66
2023/01/30 11:57:30;;;;;;;;;;;;;;;13.32;43.74;99799.59;4941516;28;98613;-66
2023/01/30 11:59:57;;;;;;;;;;;;;;;13.44;43.97;99801.81;4957400;28;118361;-66
2023/01/30 12:02:36;;;;;;;;;;;;;;;13.45;43.83;99766.31;4956826;28;113746;-66
2023/01/30 12:05:15;;;;;;;;;;;;;;;13.48;43.48;99763.00;4926147;28;97871;-66
2023/01/30 12:07:41;;;;;;;;;;;;;;;13.41;43.76;99778.06;4939953;28;108060;-66
2023/01/30 12:10:28;;;;;;;;;;;;;;;13.26;44.01;99788.09;4954137;28;120462;-67
2023/01/30 12:12:59;;;;;;;;;;;;;;;13.13;44.01;99783.47;4941813;28;97947;-66
2023/01/30 12:15:26;;;;;;;;;;;;;;;13.14;44.28;99776.13;4955253;28;101216;-66
2023/01/30 12:18:31;;;;;;;;;;;;;;;13.23;44.05;99771.66;4938476;28;97976;-67
2023/01/30 12:21:22;;;;;;;;;;;;;;;13.28;43.87;99768.81;4961247;28;114485;-66
2023/01/30 12:24:19;;;;;;;;;;;;;;;13.30;44.09;99768.53;4977866;28;98181;-66
2023/01/30 12:27:03;;;;;;;;;;;;;;;13.45;43.67;99769.03;4962491;28;100174;-66
2023/01/30 12:29:35;;;;;;;;;;;;;;;13.43;43.74;99771.22;4927818;28;98659;-66
2023/01/30 12:32:12;;;;;;;;;;;;;;;13.41;43.88;99767.22;4931309;28;114406;-66
2023/01/30 12:34:38;;;;;;;;;;;;;;;13.35;43.84;99773.84;4944395;28;99350;-65
2023/01/30 12:37:23;;;;;;;;;;;;;;;13.26;44.16;99763.72;4961348;28;97874;-66
2023/01/30 12:40:31;;;;;;;;;;;;;;;13.24;44.23;99768.66;4943036;28;98007;-67
2023/01/30 12:43:10;;;;;;;;;;;;;;;13.36;44.07;99759.19;4919528;28;98137;-66
2023/01/30 12:46:14;;;;;;;;;;;;;;;13.39;43.80;99770.22;4887322;28;98145;-66
2023/01/30 12:48:44;;;;;;;;;;;;;;;13.38;44.08;99759.72;4921884;28;98057;-67
2023/01/30 12:51:18;;;;;;;;;;;;;;;13.36;43.85;99749.19;4940010;28;98110;-66
2023/01/30 12:54:01;;;;;;;;;;;;;;;13.42;44.04;99730.94;4927556;28;97984;-69
2023/01/30 12:56:27;;;;;;;;;;;;;;;13.43;44.17;99746.84;4959585;28;97959;-66
2023/01/30 12:59:06;;;;;;;;;;;;;;;13.54;44.09;99731.19;4956181;28;98736;-66
2023/01/30 13:01:47;;;;;;;;;;;;;;;13.74;43.51;99727.25;4958314;28;99389;-67